Time;durP1;ratioP1;P1;durP2;ratioP2;P2;SDS_P1;SDS_P2;PMS_P1;PMS_P2;Temp;Humidity;BMP_temperature;BMP_pressure;BME280_temperature;BME280_humidity;BME280_pressure;Samples;Min_cycle;Max_cycle;Signal;HPM_P1;HPM_P2
2024/01/26 00:01:54;;;;;;;123.40;41.47;;;9.80;99.90;;;;;;5073881;28;20036;-56
2024/01/26 00:04:20;;;;;;;124.68;42.72;;;9.40;99.90;;;;;;5073845;28;20040;-55
2024/01/26 00:06:46;;;;;;;118.60;40.03;;;9.40;99.90;;;;;;5073588;28;20040;-55
2024/01/26 00:09:13;;;;;;;110.50;40.03;;;9.80;99.90;;;;;;5073685;28;20511;-56
2024/01/26 00:11:40;;;;;;;108.00;38.92;;;9.80;99.90;;;;;;5073406;28;20067;-53
2024/01/26 00:14:07;;;;;;;111.43;40.50;;;9.40;99.90;;;;;;5073540;28;20043;-56
2024/01/26 00:16:33;;;;;;;106.88;39.60;;;9.70;99.90;;;;;;5071508;28;20067;-54
2024/01/26 00:18:59;;;;;;;103.07;39.83;;;9.70;99.90;;;;;;5073412;28;20060;-54
2024/01/26 00:21:25;;;;;;;99.00;39.75;;;9.30;99.90;;;;;;5073184;28;20065;-55
2024/01/26 00:23:51;;;;;;;98.10;38.83;;;10.00;99.90;;;;;;5073543;28;20040;-55
2024/01/26 00:26:16;;;;;;;93.88;38.20;;;9.30;99.90;;;;;;5072852;28;20389;-52
2024/01/26 00:28:42;;;;;;;95.53;38.20;;;9.70;99.90;;;;;;5073290;28;20193;-53
2024/01/26 00:31:13;;;;;;;86.10;36.63;;;9.60;99.90;;;;;;5072933;28;20103;-55
2024/01/26 00:33:38;;;;;;;92.68;36.72;;;9.90;99.90;;;;;;5073265;28;20032;-56
2024/01/26 00:36:04;;;;;;;82.70;35.33;;;10.10;99.90;;;;;;5072695;28;20038;-54
2024/01/26 00:38:30;;;;;;;101.00;38.75;;;9.80;99.90;;;;;;5073021;28;20044;-55
2024/01/26 00:40:55;;;;;;;92.40;37.45;;;9.80;99.90;;;;;;5072756;28;20036;-55
2024/01/26 00:43:21;;;;;;;89.32;37.85;;;9.40;99.90;;;;;;5072910;28;20537;-56
2024/01/26 00:45:47;;;;;;;85.50;38.55;;;9.50;99.90;;;;;;5072525;28;20058;-55
2024/01/26 00:48:12;;;;;;;98.45;38.15;;;9.90;99.90;;;;;;5072988;28;20068;-56
2024/01/26 00:50:38;;;;;;;89.47;38.88;;;9.50;99.90;;;;;;5073173;28;20041;-54
2024/01/26 00:53:04;;;;;;;92.55;38.22;;;10.00;99.90;;;;;;5072959;28;20472;-54
2024/01/26 00:55:30;;;;;;;87.40;38.38;;;9.50;99.90;;;;;;5072338;28;20082;-56
2024/01/26 00:57:59;;;;;;;85.85;36.13;;;9.50;99.90;;;;;;5072868;28;20446;-55
2024/01/26 01:00:25;;;;;;;85.70;37.70;;;9.50;99.90;;;;;;5072336;28;20040;-56
2024/01/26 01:02:52;;;;;;;84.20;36.90;;;9.50;99.90;;;;;;5072701;28;20040;-54
2024/01/26 01:05:18;;;;;;;76.65;34.00;;;9.60;99.90;;;;;;5072560;28;20044;-55
2024/01/26 01:07:44;;;;;;;76.25;35.42;;;9.50;99.90;;;;;;5072028;28;20500;-54
2024/01/26 01:10:14;;;;;;;77.28;33.72;;;9.70;99.90;;;;;;5072422;28;20514;-55
2024/01/26 01:12:43;;;;;;;76.07;34.85;;;9.90;99.90;;;;;;5072304;28;20036;-56
2024/01/26 01:15:12;;;;;;;75.70;33.33;;;9.60;99.90;;;;;;5072202;28;20051;-53
2024/01/26 01:17:43;;;;;;;68.80;32.35;;;10.00;99.90;;;;;;5072042;28;20041;-53
2024/01/26 01:20:10;;;;;;;72.32;32.55;;;10.10;99.90;;;;;;5071802;28;20052;-56
2024/01/26 01:22:40;;;;;;;65.30;31.52;;;10.00;99.90;;;;;;5071805;28;20036;-54
2024/01/26 01:25:06;;;;;;;62.20;29.77;;;9.60;99.90;;;;;;5071286;28;20043;-55
2024/01/26 01:27:32;;;;;;;66.22;29.98;;;9.60;99.90;;;;;;5071154;28;20093;-55
2024/01/26 01:29:59;;;;;;;58.90;29.42;;;9.60;99.90;;;;;;5071114;28;20044;-54
2024/01/26 01:32:25;;;;;;;57.85;28.70;;;9.90;99.90;;;;;;5071740;28;20047;-56
2024/01/26 01:34:52;;;;;;;60.00;28.83;;;9.50;99.90;;;;;;5071971;28;20040;-54
2024/01/26 01:37:17;;;;;;;55.20;28.52;;;10.00;99.90;;;;;;5072009;28;20123;-55
2024/01/26 01:39:43;;;;;;;52.65;27.83;;;9.50;99.90;;;;;;5071821;28;20175;-54
2024/01/26 01:42:14;;;;;;;49.83;26.90;;;9.90;99.90;;;;;;5071653;28;20077;-55
2024/01/26 01:44:44;;;;;;;50.50;25.77;;;9.90;99.90;;;;;;5071634;28;20051;-54
2024/01/26 01:47:11;;;;;;;46.00;25.63;;;9.60;99.90;;;;;;5071151;28;20056;-56
2024/01/26 01:49:41;;;;;;;45.08;25.40;;;9.80;99.90;;;;;;5071784;28;20075;-55
2024/01/26 01:52:13;;;;;;;46.78;25.88;;;9.90;99.90;;;;;;5071846;28;20032;-53
2024/01/26 01:54:40;;;;;;;43.83;24.52;;;9.90;99.90;;;;;;5071483;28;20044;-55
2024/01/26 01:57:06;;;;;;;44.78;25.20;;;9.60;99.90;;;;;;5071827;28;20051;-56
2024/01/26 01:59:33;;;;;;;43.72;24.65;;;9.50;99.90;;;;;;5071582;28;20479;-56
2024/01/26 02:01:59;;;;;;;44.63;24.88;;;9.60;99.90;;;;;;5071517;28;20554;-54
2024/01/26 02:04:25;;;;;;;43.58;24.33;;;9.50;99.90;;;;;;5071029;28;20518;-55
2024/01/26 02:07:02;;;;;;;43.13;25.45;;;9.70;99.90;;;;;;5071076;28;20164;-53
2024/01/26 02:09:28;;;;;;;45.58;24.50;;;9.70;99.90;;;;;;5071161;28;20024;-55
2024/01/26 02:11:59;;;;;;;39.42;23.88;;;9.90;99.90;;;;;;5071339;28;20025;-56
2024/01/26 02:14:25;;;;;;;44.85;24.92;;;10.10;99.90;;;;;;5071285;28;20067;-55
2024/01/26 02:16:58;;;;;;;43.28;24.48;;;9.70;99.90;;;;;;5070730;28;20095;-55
2024/01/26 02:19:26;;;;;;;44.20;24.83;;;9.90;99.90;;;;;;5070385;28;20483;-55
2024/01/26 02:21:51;;;;;;;43.17;24.63;;;9.80;99.90;;;;;;5070808;28;20048;-54
2024/01/26 02:24:18;;;;;;;40.35;24.48;;;9.80;99.90;;;;;;5071206;28;20502;-55
2024/01/26 02:26:43;;;;;;;39.38;24.30;;;9.80;99.90;;;;;;5070702;28;20093;-52
2024/01/26 02:29:09;;;;;;;39.72;24.55;;;9.70;99.90;;;;;;5070968;28;20443;-55
2024/01/26 02:31:35;;;;;;;39.72;24.45;;;10.00;99.90;;;;;;5070807;28;20036;-55
2024/01/26 02:34:01;;;;;;;39.28;25.00;;;10.20;99.90;;;;;;5071007;28;20093;-56
2024/01/26 02:36:31;;;;;;;40.38;24.35;;;9.80;99.90;;;;;;5070931;28;20090;-54
2024/01/26 02:38:56;;;;;;;39.55;23.95;;;9.90;99.90;;;;;;5071273;28;20480;-54
2024/01/26 02:41:22;;;;;;;40.38;24.00;;;9.90;99.90;;;;;;5070648;28;20032;-56
2024/01/26 02:43:48;;;;;;;39.50;24.20;;;9.90;99.90;;;;;;5070968;28;20051;-53
2024/01/26 02:46:14;;;;;;;38.70;23.80;;;10.20;99.90;;;;;;5070185;28;20041;-55
2024/01/26 02:48:40;;;;;;;39.83;24.63;;;9.90;99.90;;;;;;5070399;28;20040;-55
2024/01/26 02:51:05;;;;;;;36.25;23.83;;;9.90;99.90;;;;;;5070180;28;20085;-55
2024/01/26 02:53:31;;;;;;;37.50;23.40;;;9.80;99.90;;;;;;5070548;28;20032;-56
2024/01/26 02:55:57;;;;;;;38.33;23.48;;;9.90;99.90;;;;;;5066725;28;20040;-54
2024/01/26 02:58:23;;;;;;;36.75;23.45;;;10.20;99.90;;;;;;5070660;28;20503;-55
2024/01/26 03:00:49;;;;;;;38.67;23.48;;;9.70;99.90;;;;;;5071056;28;20063;-55
2024/01/26 03:03:15;;;;;;;37.75;23.20;;;9.80;99.90;;;;;;5069271;28;20037;-55
2024/01/26 03:05:41;;;;;;;37.67;23.20;;;10.30;99.90;;;;;;5070300;28;20641;-55
2024/01/26 03:08:07;;;;;;;36.22;22.40;;;10.20;99.90;;;;;;5070252;28;20141;-56
2024/01/26 03:10:33;;;;;;;39.60;23.23;;;10.20;99.90;;;;;;5070507;28;20040;-54
2024/01/26 03:12:59;;;;;;;40.83;22.88;;;10.20;99.90;;;;;;5069937;28;20043;-55
2024/01/26 03:15:25;;;;;;;39.15;22.90;;;9.80;99.90;;;;;;5070326;28;20088;-54
2024/01/26 03:17:51;;;;;;;34.58;21.98;;;10.40;99.90;;;;;;5069563;28;20484;-56
2024/01/26 03:20:17;;;;;;;39.80;23.17;;;10.20;99.90;;;;;;5070087;28;20064;-54
2024/01/26 03:22:43;;;;;;;41.70;22.98;;;10.30;99.90;;;;;;5070640;28;20071;-54
2024/01/26 03:25:09;;;;;;;41.65;23.17;;;10.20;99.90;;;;;;5070532;28;20090;-55
2024/01/26 03:27:35;;;;;;;40.03;24.08;;;10.50;99.90;;;;;;5070073;28;20033;-55
2024/01/26 03:30:01;;;;;;;40.08;22.50;;;9.90;99.90;;;;;;5071022;28;20032;-53
2024/01/26 03:32:26;;;;;;;40.10;23.50;;;9.90;99.90;;;;;;5074401;28;20036;-56
2024/01/26 03:34:52;;;;;;;40.85;23.67;;;10.00;99.90;;;;;;5074166;28;20041;-55
2024/01/26 03:37:18;;;;;;;39.58;22.92;;;10.30;99.90;;;;;;5072840;28;20078;-54
2024/01/26 03:39:43;;;;;;;36.33;22.92;;;10.00;99.90;;;;;;5073089;28;20037;-56
2024/01/26 03:42:11;;;;;;;44.78;24.63;;;10.20;99.90;;;;;;5074240;28;20044;-53
2024/01/26 03:44:37;;;;;;;40.47;23.05;;;10.40;99.90;;;;;;5073890;28;20883;-53
2024/01/26 03:47:04;;;;;;;36.08;21.52;;;10.20;99.90;;;;;;5073269;28;20047;-54
2024/01/26 03:49:29;;;;;;;36.15;20.48;;;10.10;99.90;;;;;;5073798;28;20453;-51
2024/01/26 03:51:55;;;;;;;36.03;21.23;;;10.50;99.90;;;;;;5072493;28;20967;-52
2024/01/26 03:54:21;;;;;;;38.50;21.40;;;10.10;99.90;;;;;;5073604;28;20032;-54
2024/01/26 03:56:47;;;;;;;34.35;21.42;;;10.70;99.90;;;;;;5073770;28;20067;-54
2024/01/26 03:59:13;;;;;;;33.78;19.92;;;10.50;99.90;;;;;;5073860;28;20515;-55
2024/01/26 04:01:38;;;;;;;37.17;21.73;;;10.70;99.90;;;;;;5072661;28;20480;-55
2024/01/26 04:04:04;;;;;;;33.38;21.02;;;10.10;99.90;;;;;;5073512;28;20066;-54
2024/01/26 04:06:29;;;;;;;34.22;20.45;;;10.70;99.90;;;;;;5073787;28;20044;-55
2024/01/26 04:08:56;;;;;;;30.92;19.10;;;10.80;99.90;;;;;;5073862;28;20043;-54
2024/01/26 04:11:22;;;;;;;33.75;20.38;;;10.30;99.90;;;;;;5073800;28;20078;-54
2024/01/26 04:13:48;;;;;;;36.35;21.08;;;10.70;99.90;;;;;;5073676;28;20041;-54
2024/01/26 04:16:13;;;;;;;34.75;20.92;;;10.60;99.90;;;;;;5072941;28;20042;-54
2024/01/26 04:18:40;;;;;;;33.17;21.42;;;10.80;99.90;;;;;;5073204;28;20052;-54
2024/01/26 04:21:06;;;;;;;33.28;22.08;;;10.70;99.90;;;;;;5073095;28;20377;-52
2024/01/26 04:23:32;;;;;;;38.22;23.65;;;10.70;99.90;;;;;;5073682;28;20105;-55
2024/01/26 04:25:58;;;;;;;38.03;23.30;;;10.30;99.90;;;;;;5073290;28;20052;-55
2024/01/26 04:28:24;;;;;;;38.03;23.58;;;10.70;99.90;;;;;;5073299;28;20043;-54
2024/01/26 04:30:49;;;;;;;39.25;23.95;;;10.90;99.90;;;;;;5073264;28;20478;-55
2024/01/26 04:33:15;;;;;;;36.33;25.30;;;10.90;99.90;;;;;;5072932;28;20500;-53
2024/01/26 04:35:41;;;;;;;37.83;24.73;;;11.10;99.90;;;;;;5073129;28;20060;-55
2024/01/26 04:38:07;;;;;;;40.03;24.90;;;10.30;99.90;;;;;;5073161;28;20036;-55
2024/01/26 04:40:33;;;;;;;38.13;24.33;;;11.00;99.90;;;;;;5072893;28;20040;-55
2024/01/26 04:42:59;;;;;;;37.60;24.48;;;10.70;99.90;;;;;;5071916;28;20033;-54
2024/01/26 04:45:25;;;;;;;37.38;24.83;;;10.40;99.90;;;;;;5072857;28;20400;-55
2024/01/26 04:47:52;;;;;;;37.10;24.33;;;11.00;99.90;;;;;;5072098;28;20040;-54
2024/01/26 04:50:18;;;;;;;34.75;24.45;;;11.10;99.90;;;;;;5072960;28;20093;-52
2024/01/26 04:52:43;;;;;;;34.63;24.55;;;11.00;99.90;;;;;;5071590;28;20468;-54
2024/01/26 04:55:09;;;;;;;35.75;24.45;;;11.20;99.90;;;;;;5072689;28;20032;-55
2024/01/26 04:57:35;;;;;;;36.63;24.73;;;10.50;99.90;;;;;;5072770;28;20040;-55
2024/01/26 05:00:01;;;;;;;37.80;24.92;;;11.20;99.90;;;;;;5072654;28;20045;-54
2024/01/26 05:02:27;;;;;;;37.30;25.15;;;10.70;99.90;;;;;;5072592;28;20040;-55
2024/01/26 05:04:53;;;;;;;36.20;24.92;;;10.70;99.90;;;;;;5072501;28;20396;-54
2024/01/26 05:07:18;;;;;;;34.88;24.02;;;11.20;99.90;;;;;;5072200;28;20032;-55
2024/01/26 05:09:44;;;;;;;37.20;24.23;;;10.90;99.90;;;;;;5072518;28;20032;-54
2024/01/26 05:12:10;;;;;;;35.03;24.10;;;11.30;99.90;;;;;;5073041;28;20487;-55
2024/01/26 05:14:36;;;;;;;36.75;24.67;;;10.80;99.90;;;;;;5072340;28;20059;-55
2024/01/26 05:17:03;;;;;;;37.95;26.02;;;10.70;99.90;;;;;;5071877;28;20480;-53
2024/01/26 05:19:28;;;;;;;40.63;26.60;;;10.60;99.90;;;;;;5072415;28;20120;-55
2024/01/26 05:21:54;;;;;;;38.55;25.92;;;10.80;99.90;;;;;;5071942;28;20133;-55
2024/01/26 05:24:20;;;;;;;41.03;26.63;;;11.20;99.90;;;;;;5071982;28;20098;-53
2024/01/26 05:26:46;;;;;;;37.55;26.10;;;10.60;99.90;;;;;;5072178;28;20048;-55
2024/01/26 05:29:12;;;;;;;41.95;26.92;;;11.30;99.90;;;;;;5071978;28;20064;-54
2024/01/26 05:31:41;;;;;;;38.35;27.02;;;10.60;99.90;;;;;;5071589;28;20108;-55
2024/01/26 05:34:07;;;;;;;43.97;27.08;;;10.50;99.90;;;;;;5071565;28;20028;-55
2024/01/26 05:36:38;;;;;;;42.78;27.70;;;10.50;99.90;;;;;;5071705;28;20039;-52
2024/01/26 05:39:04;;;;;;;40.35;26.52;;;11.10;99.90;;;;;;5072023;28;20043;-55
2024/01/26 05:41:29;;;;;;;43.67;26.48;;;11.10;99.90;;;;;;5071329;28;20408;-55
2024/01/26 05:43:55;;;;;;;42.65;26.60;;;10.50;99.90;;;;;;5071792;28;20031;-54
2024/01/26 05:46:21;;;;;;;37.10;25.73;;;10.60;99.90;;;;;;5071004;28;20037;-53
2024/01/26 05:48:46;;;;;;;38.83;25.10;;;10.80;99.90;;;;;;5071527;28;20119;-54
2024/01/26 05:51:15;;;;;;;41.00;26.50;;;10.80;99.90;;;;;;5071740;28;20039;-55
2024/01/26 05:53:41;;;;;;;39.92;25.20;;;10.70;99.90;;;;;;5070030;28;20034;-54
2024/01/26 05:56:07;;;;;;;36.85;24.67;;;11.00;99.90;;;;;;5070023;28;20028;-53
2024/01/26 05:58:32;;;;;;;36.35;23.02;;;10.90;99.90;;;;;;5071119;28;20131;-53
2024/01/26 06:00:58;;;;;;;35.22;24.13;;;11.10;99.90;;;;;;5071173;28;20076;-55
2024/01/26 06:03:24;;;;;;;35.35;22.58;;;11.20;99.90;;;;;;5071244;28;20048;-54
2024/01/26 06:05:49;;;;;;;40.58;24.13;;;11.30;99.90;;;;;;5071554;28;20098;-54
2024/01/26 06:08:15;;;;;;;36.45;22.70;;;11.30;99.90;;;;;;5070847;28;20119;-56
2024/01/26 06:10:41;;;;;;;37.40;22.45;;;11.10;99.90;;;;;;5071190;28;20036;-56
2024/01/26 06:13:07;;;;;;;35.25;22.20;;;10.90;99.90;;;;;;5070974;28;20071;-56
2024/01/26 06:15:38;;;;;;;35.58;22.35;;;11.20;99.90;;;;;;5071196;28;20495;-54
2024/01/26 06:18:04;;;;;;;29.70;19.65;;;10.90;99.90;;;;;;5071235;28;20503;-55
2024/01/26 06:20:31;;;;;;;37.25;20.13;;;10.60;99.90;;;;;;5070917;28;20064;-55
2024/01/26 06:23:00;;;;;;;33.25;20.98;;;10.70;99.90;;;;;;5071128;28;20480;-55
2024/01/26 06:25:26;;;;;;;32.70;20.58;;;11.40;99.90;;;;;;5070780;28;20040;-55
2024/01/26 06:27:52;;;;;;;33.97;19.10;;;10.70;99.90;;;;;;5070911;28;20044;-56
2024/01/26 06:30:18;;;;;;;32.85;20.10;;;11.30;99.90;;;;;;5070705;28;20201;-56
2024/01/26 06:32:44;;;;;;;30.85;20.30;;;11.00;99.90;;;;;;5070811;28;20047;-56
2024/01/26 06:35:10;;;;;;;32.40;19.70;;;11.10;99.90;;;;;;5070922;28;20047;-56
2024/01/26 06:37:36;;;;;;;27.60;19.35;;;11.40;99.90;;;;;;5070786;28;20040;-54
2024/01/26 06:40:02;;;;;;;30.67;19.38;;;11.20;99.90;;;;;;5070800;28;20039;-56
2024/01/26 06:42:30;;;;;;;25.85;17.25;;;11.30;99.90;;;;;;5070678;28;20033;-56
2024/01/26 06:44:56;;;;;;;24.35;16.13;;;11.50;99.90;;;;;;5070485;28;20047;-53
2024/01/26 06:47:22;;;;;;;26.80;16.80;;;11.50;99.90;;;;;;5070436;28;20033;-54
2024/01/26 06:49:47;;;;;;;27.90;17.25;;;11.20;99.90;;;;;;5069024;28;20475;-57
2024/01/26 06:52:13;;;;;;;26.15;17.13;;;11.20;99.90;;;;;;5070736;28;20051;-56
2024/01/26 06:54:39;;;;;;;27.40;17.33;;;11.50;99.90;;;;;;5069200;28;20050;-57
2024/01/26 06:57:05;;;;;;;26.27;16.33;;;10.90;99.90;;;;;;5070616;28;20048;-57
2024/01/26 06:59:32;;;;;;;27.90;15.98;;;11.30;99.90;;;;;;5070435;28;20055;-57
2024/01/26 07:02:01;;;;;;;25.95;15.77;;;10.60;99.90;;;;;;5070686;28;20104;-57
2024/01/26 07:04:26;;;;;;;22.83;15.02;;;11.20;99.90;;;;;;5069647;28;20097;-57
2024/01/26 07:06:52;;;;;;;22.10;14.43;;;10.80;99.90;;;;;;5070269;28;20427;-56
2024/01/26 07:09:17;;;;;;;21.52;13.95;;;11.20;99.90;;;;;;5070305;28;20468;-55
2024/01/26 07:11:43;;;;;;;21.45;14.20;;;11.10;99.90;;;;;;5069995;28;20246;-56
2024/01/26 07:14:10;;;;;;;19.60;13.82;;;11.50;99.90;;;;;;5070148;28;20547;-55
2024/01/26 07:16:36;;;;;;;22.10;12.52;;;11.30;99.90;;;;;;5070392;28;20037;-53
2024/01/26 07:19:01;;;;;;;20.67;12.15;;;11.30;99.90;;;;;;5070433;28;20048;-55
2024/01/26 07:21:27;;;;;;;18.27;12.25;;;10.70;99.90;;;;;;5070279;28;20047;-55
2024/01/26 07:23:53;;;;;;;22.52;13.10;;;11.40;99.90;;;;;;5070352;28;20052;-56
2024/01/26 07:26:20;;;;;;;22.10;13.35;;;11.10;99.90;;;;;;5070262;28;20448;-56
2024/01/26 07:28:46;;;;;;;23.15;12.07;;;11.20;99.90;;;;;;5069872;28;20189;-56
2024/01/26 07:31:12;;;;;;;14.95;10.55;;;10.80;99.90;;;;;;5070329;28;20181;-57
2024/01/26 07:33:38;;;;;;;19.30;11.90;;;10.60;99.90;;;;;;5068615;28;20115;-55
2024/01/26 07:36:04;;;;;;;19.27;11.98;;;11.30;99.90;;;;;;5070335;28;20033;-56
2024/01/26 07:38:30;;;;;;;21.20;11.85;;;10.60;99.90;;;;;;5069886;28;20048;-57
2024/01/26 07:40:57;;;;;;;19.92;12.07;;;11.20;99.90;;;;;;5069095;28;20049;-56
2024/01/26 07:43:23;;;;;;;20.75;12.10;;;10.80;99.90;;;;;;5069922;28;20048;-56
2024/01/26 07:45:49;;;;;;;20.13;12.80;;;10.70;99.90;;;;;;5069429;28;20048;-55
2024/01/26 07:48:15;;;;;;;19.15;13.18;;;10.80;99.90;;;;;;5068278;28;20056;-56
2024/01/26 07:50:41;;;;;;;23.55;13.85;;;11.10;99.90;;;;;;5070295;28;20098;-54
2024/01/26 07:53:08;;;;;;;20.73;12.90;;;11.40;99.90;;;;;;5070399;28;20111;-55
2024/01/26 07:55:33;;;;;;;22.60;13.80;;;10.80;99.90;;;;;;5070214;28;20033;-57
2024/01/26 07:57:59;;;;;;;22.00;13.35;;;11.60;99.90;;;;;;5070261;28;20509;-56
2024/01/26 08:00:25;;;;;;;20.88;13.20;;;11.60;99.90;;;;;;5070081;28;20033;-57
2024/01/26 08:02:50;;;;;;;26.35;14.55;;;10.80;99.90;;;;;;5068749;28;20043;-57
2024/01/26 08:05:16;;;;;;;22.45;14.40;;;11.40;99.90;;;;;;5069778;28;20051;-56
2024/01/26 08:07:42;;;;;;;21.30;14.48;;;11.40;99.90;;;;;;5069101;28;20044;-55
2024/01/26 08:10:09;;;;;;;21.55;14.50;;;10.70;99.90;;;;;;5069660;28;20392;-56
2024/01/26 08:12:35;;;;;;;23.00;15.02;;;10.90;99.90;;;;;;5069993;28;20432;-56
2024/01/26 08:15:02;;;;;;;23.00;15.48;;;11.50;99.90;;;;;;5069856;28;20032;-56
2024/01/26 08:17:27;;;;;;;23.83;15.77;;;11.50;99.90;;;;;;5070918;28;20036;-55
2024/01/26 08:19:53;;;;;;;25.25;16.80;;;11.00;99.90;;;;;;5062120;28;20071;-57
2024/01/26 08:22:19;;;;;;;24.55;16.77;;;11.30;99.90;;;;;;5065213;28;20534;-56
2024/01/26 08:24:44;;;;;;;23.50;17.00;;;10.90;99.90;;;;;;5063809;28;20041;-57
2024/01/26 08:27:10;;;;;;;24.50;17.65;;;11.50;99.90;;;;;;5064010;28;20051;-57
2024/01/26 08:29:37;;;;;;;24.23;16.85;;;11.10;99.90;;;;;;5064857;28;20036;-56
2024/01/26 08:32:03;;;;;;;23.15;17.95;;;11.40;99.90;;;;;;5064376;28;20035;-57
2024/01/26 08:34:29;;;;;;;25.80;17.70;;;11.80;99.90;;;;;;5065139;28;20036;-56
2024/01/26 08:36:55;;;;;;;25.67;18.20;;;11.60;99.90;;;;;;5065386;28;20040;-57
2024/01/26 08:39:22;;;;;;;28.95;18.95;;;11.60;99.90;;;;;;5063663;28;20040;-57
2024/01/26 08:41:48;;;;;;;27.63;20.00;;;11.80;99.90;;;;;;5063601;28;20043;-57
2024/01/26 08:44:14;;;;;;;26.58;20.38;;;11.60;99.90;;;;;;5064971;28;20098;-55
2024/01/26 08:46:40;;;;;;;29.13;19.80;;;11.00;99.90;;;;;;5064795;28;20029;-57
2024/01/26 08:49:06;;;;;;;29.48;21.73;;;11.00;99.90;;;;;;5064150;28;20037;-55
2024/01/26 08:51:32;;;;;;;28.75;21.00;;;11.00;99.90;;;;;;5066482;28;20033;-56
2024/01/26 08:53:58;;;;;;;29.70;20.67;;;11.70;99.90;;;;;;5066724;28;20032;-56
2024/01/26 08:56:24;;;;;;;29.95;21.80;;;11.60;99.90;;;;;;5064674;28;20695;-56
2024/01/26 08:58:54;;;;;;;25.33;20.00;;;11.80;99.90;;;;;;5064623;28;20080;-56
2024/01/26 09:01:20;;;;;;;29.75;18.95;;;11.10;99.90;;;;;;5063188;28;20068;-56
2024/01/26 09:03:46;;;;;;;29.40;19.08;;;11.60;99.90;;;;;;5067176;28;20042;-56
2024/01/26 09:06:12;;;;;;;27.85;17.95;;;11.30;99.90;;;;;;5065746;28;20029;-56
2024/01/26 09:08:37;;;;;;;23.98;17.55;;;12.00;99.90;;;;;;5067812;28;20041;-57
2024/01/26 09:11:04;;;;;;;22.90;15.27;;;11.10;99.90;;;;;;5066745;28;20044;-57
2024/01/26 09:13:30;;;;;;;21.83;12.68;;;11.70;99.90;;;;;;5063417;28;20033;-57
2024/01/26 09:15:55;;;;;;;15.50;7.20;;;11.70;99.90;;;;;;5064455;28;20051;-58
2024/01/26 09:18:22;;;;;;;16.48;5.82;;;11.70;99.90;;;;;;5062942;28;20432;-57
2024/01/26 09:20:49;;;;;;;9.90;3.63;;;11.70;99.90;;;;;;5065373;28;20075;-57
2024/01/26 09:23:16;;;;;;;14.75;3.60;;;11.00;99.90;;;;;;5065094;28;20075;-58
2024/01/26 09:25:43;;;;;;;6.55;1.48;;;10.60;99.90;;;;;;5064428;28;20107;-58
2024/01/26 09:28:08;;;;;;;4.35;1.00;;;10.10;99.90;;;;;;5064580;28;20037;-57
2024/01/26 09:30:34;;;;;;;4.35;0.80;;;10.00;99.90;;;;;;5064151;28;20029;-57
2024/01/26 09:32:59;;;;;;;4.00;1.05;;;9.20;99.90;;;;;;5064730;28;20033;-56
2024/01/26 09:35:25;;;;;;;4.65;0.77;;;8.90;99.90;;;;;;5065054;28;20040;-56
2024/01/26 09:37:51;;;;;;;3.88;1.05;;;9.20;99.90;;;;;;5064920;28;20102;-54
2024/01/26 09:40:18;;;;;;;5.90;1.17;;;8.70;99.90;;;;;;5064586;28;20048;-56
2024/01/26 09:42:44;;;;;;;5.32;0.90;;;8.50;99.90;;;;;;5063242;28;20048;-53
2024/01/26 09:45:11;;;;;;;6.93;1.00;;;8.50;99.90;;;;;;5063080;28;20041;-56
2024/01/26 09:47:39;;;;;;;7.05;1.73;;;8.40;99.90;;;;;;5061370;28;22753;-56
2024/01/26 09:50:06;;;;;;;7.05;0.93;;;8.40;99.90;;;;;;5061058;28;20047;-56
2024/01/26 09:52:34;;;;;;;5.65;0.90;;;8.60;99.90;;;;;;5062728;28;20031;-56
2024/01/26 09:55:01;;;;;;;10.30;1.13;;;8.80;99.90;;;;;;5063787;28;20472;-55
2024/01/26 09:57:29;;;;;;;7.25;0.90;;;8.40;99.90;;;;;;5065027;28;20040;-55
2024/01/26 09:59:55;;;;;;;10.55;1.20;;;8.90;99.90;;;;;;5065996;28;20036;-55
2024/01/26 10:02:25;;;;;;;9.27;1.20;;;8.40;99.90;;;;;;5066543;28;20078;-56
2024/01/26 10:04:51;;;;;;;8.13;1.30;;;8.40;99.90;;;;;;5064432;28;20067;-55
2024/01/26 10:07:17;;;;;;;14.93;1.98;;;8.80;99.90;;;;;;5067057;28;20072;-56
2024/01/26 10:09:43;;;;;;;9.77;1.58;;;8.90;99.90;;;;;;5069553;28;20079;-56
2024/01/26 10:12:10;;;;;;;11.20;2.03;;;8.90;99.90;;;;;;5069839;28;20258;-55
2024/01/26 10:14:36;;;;;;;12.52;1.63;;;8.90;99.90;;;;;;5069758;28;20036;-56
2024/01/26 10:17:02;;;;;;;20.05;2.05;;;8.90;99.90;;;;;;5069690;28;20048;-53
2024/01/26 10:19:28;;;;;;;17.05;2.55;;;8.70;99.90;;;;;;5069150;28;20040;-55
2024/01/26 10:21:54;;;;;;;14.75;2.53;;;8.80;99.90;;;;;;5069943;28;20049;-56
2024/01/26 10:24:24;;;;;;;18.13;2.33;;;8.80;99.90;;;;;;5069319;28;20082;-56
2024/01/26 10:26:54;;;;;;;11.90;1.80;;;8.80;99.90;;;;;;5069738;28;20032;-54
2024/01/26 10:29:21;;;;;;;10.95;2.35;;;8.60;99.90;;;;;;5070389;28;20040;-54
2024/01/26 10:31:47;;;;;;;21.60;3.03;;;8.70;99.90;;;;;;5070640;28;20079;-57
2024/01/26 10:34:15;;;;;;;10.32;2.20;;;8.70;99.90;;;;;;5070026;28;20032;-57
2024/01/26 10:36:49;;;;;;;17.67;2.15;;;9.10;99.90;;;;;;5070879;28;20078;-56
2024/01/26 10:39:22;;;;;;;12.13;2.17;;;9.20;99.90;;;;;;5069180;28;20514;-55
2024/01/26 10:41:50;;;;;;;14.93;2.53;;;9.10;99.90;;;;;;5070301;28;20469;-55
2024/01/26 10:44:19;;;;;;;13.77;2.22;;;9.10;99.90;;;;;;5068922;28;20545;-54
2024/01/26 10:46:45;;;;;;;9.65;2.05;;;9.10;99.90;;;;;;5066318;28;20079;-54
2024/01/26 10:49:12;;;;;;;24.00;2.97;;;9.30;99.90;;;;;;5068635;28;20440;-56
2024/01/26 10:51:41;;;;;;;13.10;2.47;;;9.30;99.90;;;;;;5073371;28;20138;-54
2024/01/26 10:54:11;;;;;;;12.70;2.47;;;9.20;99.90;;;;;;5075719;28;20031;-55
2024/01/26 10:56:38;;;;;;;15.95;2.03;;;9.30;99.90;;;;;;5074784;28;20036;-53
2024/01/26 10:59:10;;;;;;;14.60;2.47;;;9.50;99.90;;;;;;5072539;28;20029;-55
2024/01/26 11:01:37;;;;;;;17.02;2.22;;;9.60;99.90;;;;;;5070984;28;20397;-55
2024/01/26 11:04:03;;;;;;;20.85;2.65;;;9.50;99.90;;;;;;5068171;28;20044;-56
2024/01/26 11:06:32;;;;;;;14.70;2.42;;;9.30;99.90;;;;;;5070071;28;20592;-56
2024/01/26 11:08:59;;;;;;;16.75;2.78;;;9.10;99.90;;;;;;5068981;28;20051;-54
2024/01/26 11:11:31;;;;;;;18.55;2.72;;;9.10;99.90;;;;;;5069778;28;20036;-56
2024/01/26 11:14:00;;;;;;;14.82;2.72;;;9.20;99.90;;;;;;5068824;28;20073;-57
2024/01/26 11:16:35;;;;;;;18.73;3.20;;;9.00;99.90;;;;;;5070078;28;20059;-54
2024/01/26 11:19:02;;;;;;;14.40;2.78;;;9.10;99.90;;;;;;5068903;28;20101;-53
2024/01/26 11:21:38;;;;;;;23.35;3.15;;;9.00;99.90;;;;;;5070133;28;20053;-56
2024/01/26 11:24:16;;;;;;;17.23;2.83;;;9.00;99.90;;;;;;5070402;28;20080;-55
2024/01/26 11:26:43;;;;;;;17.80;2.40;;;9.00;99.90;;;;;;5070277;28;20037;-54
2024/01/26 11:29:13;;;;;;;19.27;3.03;;;9.00;99.90;;;;;;5070321;28;20043;-56
2024/01/26 11:31:41;;;;;;;21.88;3.22;;;9.00;99.90;;;;;;5071329;28;20064;-54
2024/01/26 11:34:17;;;;;;;12.13;2.47;;;8.90;99.90;;;;;;5069855;28;20036;-55
2024/01/26 11:36:44;;;;;;;16.35;2.63;;;8.80;99.90;;;;;;5068875;28;20048;-56
2024/01/26 11:39:13;;;;;;;15.15;2.35;;;8.80;99.90;;;;;;5069419;28;20040;-56
2024/01/26 11:41:44;;;;;;;19.52;2.78;;;8.70;99.90;;;;;;5070466;28;20036;-55
2024/01/26 11:44:20;;;;;;;20.23;3.47;;;8.70;99.90;;;;;;5069527;28;20123;-56
2024/01/26 11:46:47;;;;;;;19.67;2.95;;;8.70;99.90;;;;;;5080083;28;20040;-56
2024/01/26 11:49:12;;;;;;;17.98;3.40;;;8.70;99.90;;;;;;5057607;28;20037;-56
2024/01/26 11:51:38;;;;;;;17.02;3.25;;;8.70;99.90;;;;;;5064295;28;20613;-55
2024/01/26 11:54:05;;;;;;;18.48;2.92;;;8.60;99.90;;;;;;5069609;28;20269;-55
2024/01/26 11:56:31;;;;;;;20.50;2.88;;;8.60;99.90;;;;;;5066526;28;20037;-54
2024/01/26 11:58:58;;;;;;;21.75;3.95;;;8.60;99.90;;;;;;5064788;28;20040;-56
2024/01/26 12:01:24;;;;;;;22.67;3.05;;;8.50;99.90;;;;;;5064360;28;20123;-56
2024/01/26 12:03:50;;;;;;;19.45;3.13;;;8.50;99.90;;;;;;5069063;28;20123;-56
2024/01/26 12:06:17;;;;;;;21.83;4.00;;;8.50;99.90;;;;;;5067960;28;20037;-55
2024/01/26 12:08:43;;;;;;;19.52;3.15;;;8.60;99.90;;;;;;5062501;28;20040;-56
2024/01/26 12:11:11;;;;;;;22.98;3.20;;;8.60;99.90;;;;;;5069346;28;20048;-53
2024/01/26 12:13:37;;;;;;;18.33;3.63;;;8.60;99.90;;;;;;5066818;28;20033;-55
2024/01/26 12:16:04;;;;;;;23.48;3.15;;;8.60;99.90;;;;;;5063878;28;20060;-57
2024/01/26 12:18:30;;;;;;;19.13;3.00;;;8.60;99.90;;;;;;5067572;28;20045;-55
2024/01/26 12:20:57;;;;;;;20.83;2.90;;;8.60;99.90;;;;;;5066601;28;20051;-54
2024/01/26 12:23:23;;;;;;;17.13;2.53;;;8.50;99.90;;;;;;5065773;28;20075;-56
2024/01/26 12:25:50;;;;;;;16.42;2.40;;;8.50;99.90;;;;;;5063933;28;20040;-55
2024/01/26 12:28:16;;;;;;;15.52;3.10;;;8.50;99.90;;;;;;5067154;28;20056;-56
2024/01/26 12:30:46;;;;;;;19.80;2.85;;;8.50;99.90;;;;;;5066175;28;20086;-56